Time;durP1;ratioP1;P1;durP2;ratioP2;P2;SDS_P1;SDS_P2;PMS_P1;PMS_P2;Temp;Humidity;BMP_temperature;BMP_pressure;BME280_temperature;BME280_humidity;BME280_pressure;Samples;Min_cycle;Max_cycle;Signal;HPM_P1;HPM_P2
2022/08/03 00:01:19;;;;;;;0.75;0.30;;;22.40;63.00;;;;;;5075600;28;20399;-73
2022/08/03 00:03:44;;;;;;;0.70;0.40;;;22.40;63.00;;;;;;5075845;28;20040;-74
2022/08/03 00:06:10;;;;;;;0.90;0.30;;;22.40;63.00;;;;;;5075767;28;20128;-74
2022/08/03 00:08:36;;;;;;;0.70;0.35;;;22.40;63.10;;;;;;5076032;28;20078;-73
2022/08/03 00:11:03;;;;;;;0.60;0.30;;;22.40;63.10;;;;;;5076044;28;20435;-74
2022/08/03 00:13:29;;;;;;;2.25;0.50;;;22.40;63.20;;;;;;5093700;28;20181;-74
2022/08/03 00:15:54;;;;;;;1.05;0.40;;;22.40;63.10;;;;;;5075519;28;20062;-74
2022/08/03 00:18:20;;;;;;;0.77;0.40;;;22.40;63.20;;;;;;5075556;28;20093;-74
2022/08/03 00:20:46;;;;;;;1.80;0.60;;;22.40;63.30;;;;;;5075335;28;20040;-74
2022/08/03 00:23:11;;;;;;;1.45;0.35;;;22.40;63.30;;;;;;5093669;28;20044;-74
2022/08/03 00:25:37;;;;;;;0.85;0.47;;;22.40;63.30;;;;;;5075371;28;20044;-74
2022/08/03 00:28:04;;;;;;;0.95;0.45;;;22.40;63.30;;;;;;5093415;28;20029;-74
2022/08/03 00:30:30;;;;;;;1.35;0.50;;;22.40;63.40;;;;;;5075541;28;20122;-74
2022/08/03 00:32:56;;;;;;;0.90;0.40;;;22.40;63.50;;;;;;5075416;28;20048;-73
2022/08/03 00:35:22;;;;;;;1.02;0.50;;;22.30;63.30;;;;;;5093322;28;20070;-74
2022/08/03 00:37:48;;;;;;;2.05;0.30;;;22.40;63.40;;;;;;5075201;28;20119;-74
2022/08/03 00:40:15;;;;;;;2.08;0.50;;;22.30;63.50;;;;;;5075242;28;20040;-74
2022/08/03 00:42:58;;;;;;;3.15;0.50;;;22.40;63.50;;;;;;5075295;28;20055;-74
2022/08/03 00:45:27;;;;;;;0.68;0.30;;;22.40;63.60;;;;;;5075194;28;20093;-74
2022/08/03 00:47:53;;;;;;;1.50;0.45;;;22.40;63.60;;;;;;5074931;28;20051;-74
2022/08/03 00:50:21;;;;;;;2.13;0.45;;;22.40;63.60;;;;;;5093133;28;20506;-74
2022/08/03 00:52:47;;;;;;;0.60;0.30;;;22.30;63.50;;;;;;5075097;28;20119;-74
2022/08/03 00:55:13;;;;;;;2.03;0.40;;;22.30;63.50;;;;;;5074716;28;20552;-74
2022/08/03 00:57:40;;;;;;;0.73;0.20;;;22.40;63.60;;;;;;5092926;28;20027;-74
2022/08/03 01:00:08;;;;;;;0.90;0.40;;;22.30;63.70;;;;;;5092624;28;20060;-74
2022/08/03 01:02:33;;;;;;;1.92;0.50;;;22.40;63.70;;;;;;5074907;28;20410;-74
2022/08/03 01:04:59;;;;;;;1.27;0.40;;;22.30;63.70;;;;;;5074905;28;20043;-74
2022/08/03 01:10:14;;;;;;;1.08;0.50;;;22.30;63.70;;;;;;5130225;27;20432;-73
2022/08/03 01:13:07;;;;;;;1.25;0.60;;;22.30;63.80;;;;;;5130277;27;20382;-74
2022/08/03 01:15:42;;;;;;;0.70;0.40;;;22.30;63.80;;;;;;5146116;27;20046;-74
2022/08/03 01:21:15;;;;;;;1.45;0.40;;;22.40;64.00;;;;;;5089244;28;20414;-74
2022/08/03 01:32:07;;;;;;;0.85;0.40;;;22.30;64.00;;;;;;5130338;27;20864;-74
2022/08/03 01:34:40;;;;;;;0.95;0.40;;;22.30;64.00;;;;;;5129029;28;20071;-74
2022/08/03 01:37:07;;;;;;;1.23;0.45;;;22.30;64.00;;;;;;5130208;27;20031;-74
2022/08/03 01:39:36;;;;;;;1.60;0.38;;;22.30;64.00;;;;;;5129103;28;20035;-74
2022/08/03 01:42:05;;;;;;;1.10;0.40;;;22.30;64.00;;;;;;5129095;27;20039;-73
2022/08/03 01:44:39;;;;;;;0.93;0.38;;;22.30;64.00;;;;;;5128883;28;20043;-74
2022/08/03 01:47:06;;;;;;;0.57;0.38;;;22.30;64.10;;;;;;5129997;27;20070;-74
2022/08/03 01:49:37;;;;;;;1.58;0.40;;;22.30;64.10;;;;;;5128682;27;20050;-74
2022/08/03 01:52:05;;;;;;;1.30;0.40;;;22.30;64.10;;;;;;5129874;27;20122;-74
2022/08/03 01:54:34;;;;;;;3.25;0.63;;;22.30;64.10;;;;;;5128870;27;20067;-74
2022/08/03 01:57:02;;;;;;;0.90;0.30;;;22.30;64.10;;;;;;5128860;27;20040;-73
2022/08/03 01:59:29;;;;;;;1.13;0.30;;;22.30;64.10;;;;;;5129962;27;20424;-74
2022/08/03 02:01:56;;;;;;;1.92;0.70;;;22.30;64.10;;;;;;5128507;27;20087;-74
2022/08/03 02:04:24;;;;;;;1.05;0.35;;;22.30;64.10;;;;;;5128447;28;20039;-74
2022/08/03 02:06:51;;;;;;;1.15;0.50;;;22.30;64.10;;;;;;5128607;27;20069;-74
2022/08/03 02:09:20;;;;;;;1.45;0.43;;;22.30;64.10;;;;;;5128329;27;20043;-74
2022/08/03 02:11:46;;;;;;;1.35;0.57;;;22.20;64.10;;;;;;5129521;27;20117;-74
2022/08/03 02:14:13;;;;;;;0.75;0.32;;;22.30;64.10;;;;;;5128520;28;20040;-74
2022/08/03 02:16:39;;;;;;;0.68;0.40;;;22.30;64.20;;;;;;5128233;28;20525;-74
2022/08/03 02:19:07;;;;;;;1.38;0.30;;;22.20;64.10;;;;;;5128138;28;20126;-74
2022/08/03 02:21:36;;;;;;;0.90;0.40;;;22.20;64.10;;;;;;5129260;27;20043;-74
2022/08/03 02:24:03;;;;;;;0.93;0.40;;;22.20;64.20;;;;;;5128306;28;20079;-74
2022/08/03 02:26:30;;;;;;;1.60;0.30;;;22.20;64.20;;;;;;5128047;27;20047;-73
2022/08/03 02:29:00;;;;;;;0.63;0.30;;;22.20;64.10;;;;;;5129207;27;20031;-74
2022/08/03 02:31:29;;;;;;;0.85;0.35;;;22.20;64.20;;;;;;5127647;28;20053;-74
2022/08/03 02:34:01;;;;;;;0.88;0.30;;;22.20;64.20;;;;;;5127730;27;20036;-74
2022/08/03 02:36:29;;;;;;;0.98;0.40;;;22.20;64.20;;;;;;5127903;28;20043;-74
2022/08/03 02:38:58;;;;;;;1.85;0.50;;;22.20;64.20;;;;;;5127755;28;20039;-74
2022/08/03 02:41:30;;;;;;;0.60;0.30;;;22.20;64.30;;;;;;5125738;27;20098;-74
2022/08/03 02:43:59;;;;;;;0.85;0.30;;;22.20;64.30;;;;;;5113957;28;20050;-74
2022/08/03 02:46:32;;;;;;;2.47;1.05;;;22.20;64.20;;;;;;5113875;28;20494;-74
2022/08/03 02:49:01;;;;;;;2.05;0.40;;;22.20;64.30;;;;;;5115113;28;20047;-74
2022/08/03 02:51:31;;;;;;;1.20;0.40;;;22.20;64.30;;;;;;5113909;28;20126;-74
2022/08/03 02:54:00;;;;;;;1.10;0.40;;;22.20;64.30;;;;;;5113774;28;20050;-74
2022/08/03 02:56:27;;;;;;;1.23;0.43;;;22.20;64.30;;;;;;5113916;28;20036;-74
2022/08/03 02:58:55;;;;;;;1.10;0.47;;;22.20;64.30;;;;;;5113988;28;20040;-74
2022/08/03 03:01:23;;;;;;;1.42;0.60;;;22.20;64.30;;;;;;5113905;28;20637;-75
2022/08/03 03:03:50;;;;;;;0.68;0.40;;;22.20;64.30;;;;;;5113679;28;20047;-74
2022/08/03 03:06:17;;;;;;;1.15;0.52;;;22.20;64.30;;;;;;5114803;28;20085;-74
2022/08/03 03:08:45;;;;;;;2.78;0.50;;;22.20;64.40;;;;;;5113520;28;20505;-74
2022/08/03 03:11:12;;;;;;;1.67;0.40;;;22.20;64.30;;;;;;5114663;28;20067;-73
2022/08/03 03:13:40;;;;;;;1.83;0.43;;;22.20;64.40;;;;;;5113558;28;20044;-74
2022/08/03 03:16:07;;;;;;;2.00;0.50;;;22.20;64.40;;;;;;5113358;28;20036;-74
2022/08/03 03:18:33;;;;;;;0.70;0.40;;;22.20;64.40;;;;;;5112632;27;20055;-74
2022/08/03 03:21:01;;;;;;;0.98;0.30;;;22.20;64.40;;;;;;5094352;28;20105;-74
2022/08/03 03:23:29;;;;;;;0.68;0.40;;;22.20;64.40;;;;;;5093091;28;20051;-74
2022/08/03 03:25:57;;;;;;;0.98;0.30;;;22.20;64.40;;;;;;5093220;28;20043;-74
2022/08/03 03:28:23;;;;;;;1.23;0.60;;;22.20;64.40;;;;;;5109840;28;20065;-74
2022/08/03 03:30:50;;;;;;;2.20;0.50;;;22.20;64.40;;;;;;5092286;28;20499;-74
2022/08/03 03:33:16;;;;;;;1.67;0.50;;;22.20;65.10;;;;;;5109681;28;20101;-74
2022/08/03 03:35:44;;;;;;;1.27;0.20;;;22.20;64.40;;;;;;5092663;28;20039;-74
2022/08/03 03:38:10;;;;;;;1.15;0.30;;;22.20;64.40;;;;;;5092667;28;20040;-74
2022/08/03 03:40:37;;;;;;;1.33;0.47;;;22.20;64.40;;;;;;5092558;28;20092;-74
2022/08/03 03:43:07;;;;;;;1.20;0.50;;;22.20;64.40;;;;;;5092578;28;20051;-74
2022/08/03 03:45:34;;;;;;;1.90;0.52;;;22.20;64.50;;;;;;5093685;28;20036;-74
2022/08/03 03:48:03;;;;;;;1.55;0.40;;;22.20;64.50;;;;;;5112880;28;20035;-74
2022/08/03 03:50:30;;;;;;;0.60;0.30;;;22.20;64.50;;;;;;5112904;28;20123;-74
2022/08/03 03:52:56;;;;;;;1.10;0.28;;;22.20;64.40;;;;;;5112250;28;20100;-74
2022/08/03 03:55:22;;;;;;;0.80;0.25;;;22.20;64.50;;;;;;5113486;28;20036;-74
2022/08/03 03:57:48;;;;;;;1.45;0.40;;;22.10;64.40;;;;;;5113849;28;20387;-74
2022/08/03 04:00:15;;;;;;;0.50;0.20;;;22.10;64.40;;;;;;5112818;28;20540;-74
2022/08/03 04:02:41;;;;;;;1.83;0.50;;;22.10;64.40;;;;;;5112480;28;20069;-74
2022/08/03 04:10:58;;;;;;;0.80;0.30;;;22.10;64.50;;;;;;5112015;28;20079;-74
2022/08/03 04:13:28;;;;;;;1.95;0.50;;;22.10;64.40;;;;;;5113559;28;20049;-73
2022/08/03 04:15:56;;;;;;;0.85;0.20;;;22.10;64.50;;;;;;5112306;28;20047;-74
2022/08/03 04:18:25;;;;;;;1.15;0.30;;;22.10;64.40;;;;;;5112188;28;20039;-74
2022/08/03 04:20:52;;;;;;;0.60;0.22;;;22.10;65.20;;;;;;5112385;28;20414;-74
2022/08/03 04:23:21;;;;;;;1.25;0.57;;;22.10;64.50;;;;;;5111960;28;20082;-73
2022/08/03 04:25:50;;;;;;;0.88;0.30;;;22.10;64.50;;;;;;5112346;28;20039;-74
2022/08/03 04:28:16;;;;;;;1.38;0.32;;;22.10;64.50;;;;;;5113224;28;20092;-73
2022/08/03 04:30:47;;;;;;;0.77;0.25;;;22.10;64.50;;;;;;5111776;28;20126;-74
2022/08/03 04:33:13;;;;;;;1.42;0.50;;;22.10;64.50;;;;;;5111818;28;20117;-74
2022/08/03 04:35:42;;;;;;;1.13;0.45;;;22.10;64.50;;;;;;5111882;28;20035;-74
2022/08/03 04:38:08;;;;;;;1.35;0.50;;;22.10;64.50;;;;;;5113035;28;20035;-74
2022/08/03 04:40:38;;;;;;;1.50;0.63;;;22.10;64.50;;;;;;5111798;28;20617;-74
2022/08/03 04:43:05;;;;;;;1.17;0.50;;;22.10;64.50;;;;;;5111719;28;20051;-74
2022/08/03 04:45:31;;;;;;;0.65;0.40;;;22.00;64.50;;;;;;5112036;28;20075;-74
2022/08/03 04:47:57;;;;;;;0.60;0.30;;;22.10;64.50;;;;;;5111502;28;20044;-74
2022/08/03 04:50:24;;;;;;;0.73;0.30;;;22.00;64.50;;;;;;5111763;28;20036;-74
2022/08/03 04:52:50;;;;;;;0.90;0.30;;;22.10;64.50;;;;;;5111463;28;20093;-73
2022/08/03 04:55:32;;;;;;;1.00;0.30;;;22.00;64.50;;;;;;5111510;28;20035;-74
2022/08/03 04:57:59;;;;;;;1.00;0.50;;;22.10;64.60;;;;;;5111353;28;20036;-74
2022/08/03 05:00:25;;;;;;;0.90;0.30;;;22.00;64.50;;;;;;5111485;28;20122;-74
2022/08/03 05:02:52;;;;;;;0.93;0.50;;;22.00;64.50;;;;;;5111676;28;20542;-74
2022/08/03 05:05:19;;;;;;;0.93;0.43;;;22.10;64.60;;;;;;5112299;28;20085;-74
2022/08/03 05:07:44;;;;;;;2.65;0.30;;;22.10;64.60;;;;;;5111367;28;20495;-74
2022/08/03 05:10:11;;;;;;;1.30;0.47;;;22.10;64.60;;;;;;5111162;28;20036;-74
2022/08/03 05:12:37;;;;;;;0.65;0.22;;;22.00;64.50;;;;;;5111253;28;20123;-74
2022/08/03 05:15:04;;;;;;;2.15;0.30;;;22.00;64.60;;;;;;5111293;28;20035;-73
2022/08/03 05:17:30;;;;;;;1.45;0.40;;;22.00;64.60;;;;;;5111484;28;20372;-74
2022/08/03 05:19:55;;;;;;;0.95;0.45;;;22.00;65.30;;;;;;5111100;28;20055;-74
2022/08/03 05:22:21;;;;;;;0.88;0.30;;;22.00;64.60;;;;;;5111355;28;20113;-74
2022/08/03 05:24:47;;;;;;;0.80;0.50;;;22.00;64.60;;;;;;5111168;28;20042;-74
2022/08/03 05:27:18;;;;;;;0.85;0.40;;;22.00;64.60;;;;;;5111436;28;20036;-74
2022/08/03 05:29:45;;;;;;;1.00;0.40;;;22.00;64.60;;;;;;5110924;28;20040;-74
2022/08/03 05:32:11;;;;;;;1.15;0.40;;;22.10;64.70;;;;;;5111034;28;20100;-74
2022/08/03 05:34:37;;;;;;;1.40;0.30;;;22.00;64.70;;;;;;5110898;28;20036;-74
2022/08/03 05:37:03;;;;;;;1.05;0.50;;;22.00;64.60;;;;;;5111036;28;20478;-74
2022/08/03 05:39:29;;;;;;;0.50;0.30;;;22.10;64.70;;;;;;5110958;28;20123;-74
2022/08/03 05:41:54;;;;;;;2.45;0.32;;;22.00;64.70;;;;;;5110971;28;20077;-74
2022/08/03 05:44:20;;;;;;;1.00;0.30;;;22.00;65.60;;;;;;5110981;28;20035;-74
2022/08/03 05:46:45;;;;;;;0.70;0.30;;;22.00;64.70;;;;;;5111081;28;20047;-74
2022/08/03 05:49:11;;;;;;;2.63;0.47;;;22.00;64.80;;;;;;5110887;28;20122;-73
2022/08/03 05:51:37;;;;;;;1.08;0.47;;;22.00;64.80;;;;;;5110801;28;20040;-74
2022/08/03 05:54:02;;;;;;;0.88;0.40;;;22.00;64.80;;;;;;5110918;28;20465;-74
2022/08/03 05:56:28;;;;;;;0.93;0.30;;;22.00;64.90;;;;;;5110829;28;20130;-74
2022/08/03 05:58:54;;;;;;;0.77;0.43;;;22.00;64.90;;;;;;5111049;28;20039;-74
2022/08/03 06:01:21;;;;;;;1.50;0.40;;;22.10;65.00;;;;;;5110989;28;20390;-74
2022/08/03 06:03:47;;;;;;;0.90;0.20;;;22.00;65.00;;;;;;5111082;28;20122;-74
2022/08/03 06:06:13;;;;;;;0.80;0.50;;;22.00;65.70;;;;;;5110899;28;20448;-73
2022/08/03 06:08:40;;;;;;;1.48;0.30;;;22.00;64.90;;;;;;5110725;28;20071;-73
2022/08/03 06:11:06;;;;;;;2.30;0.50;;;22.10;65.10;;;;;;5110689;28;20031;-73
2022/08/03 06:13:32;;;;;;;1.33;0.40;;;22.00;65.00;;;;;;5110988;28;20058;-73
2022/08/03 06:15:58;;;;;;;0.88;0.30;;;22.00;65.10;;;;;;5111865;28;20036;-74
2022/08/03 06:18:24;;;;;;;1.83;0.30;;;22.10;65.10;;;;;;5114294;28;20036;-73
2022/08/03 06:20:50;;;;;;;0.63;0.30;;;22.00;65.10;;;;;;5112266;28;20048;-74
2022/08/03 06:23:16;;;;;;;0.77;0.30;;;22.10;65.20;;;;;;5115059;28;20046;-73
2022/08/03 06:25:42;;;;;;;0.93;0.30;;;22.00;65.20;;;;;;5114313;28;20387;-74
2022/08/03 06:28:08;;;;;;;1.88;0.43;;;22.10;65.20;;;;;;5113952;28;20042;-74
2022/08/03 06:30:35;;;;;;;1.38;0.35;;;22.00;65.30;;;;;;5114933;28;20051;-74
2022/08/03 06:33:00;;;;;;;1.17;0.32;;;22.10;65.30;;;;;;5113758;28;20048;-74
2022/08/03 06:35:26;;;;;;;1.38;0.30;;;22.00;65.30;;;;;;5113853;28;20123;-74
2022/08/03 06:37:53;;;;;;;1.75;0.38;;;22.10;65.40;;;;;;5114117;28;20039;-74
2022/08/03 06:40:28;;;;;;;0.90;0.40;;;22.00;65.40;;;;;;5114091;28;20039;-73
2022/08/03 06:42:55;;;;;;;1.63;0.60;;;22.00;65.30;;;;;;5113932;28;20472;-74
2022/08/03 06:45:21;;;;;;;1.33;0.40;;;22.10;65.40;;;;;;5113690;28;20490;-73
2022/08/03 06:47:58;;;;;;;3.15;0.60;;;22.00;65.40;;;;;;5113854;28;20059;-74
2022/08/03 06:50:24;;;;;;;1.02;0.25;;;22.00;65.40;;;;;;5113490;28;20051;-73
2022/08/03 06:52:49;;;;;;;1.00;0.50;;;22.00;65.40;;;;;;5113343;28;20085;-74
2022/08/03 06:55:15;;;;;;;1.23;0.45;;;22.10;65.50;;;;;;5114972;28;20050;-74
2022/08/03 06:57:41;;;;;;;1.45;0.30;;;22.00;65.50;;;;;;5113313;28;20093;-75
2022/08/03 07:00:08;;;;;;;1.38;0.40;;;22.00;65.60;;;;;;5113414;28;20049;-75
2022/08/03 07:02:34;;;;;;;1.40;0.45;;;22.10;65.60;;;;;;5113389;28;20044;-74
2022/08/03 07:04:59;;;;;;;0.68;0.30;;;22.00;65.60;;;;;;5113252;28;20122;-74
2022/08/03 07:07:25;;;;;;;1.58;0.22;;;22.10;65.70;;;;;;5113348;28;20083;-74
2022/08/03 07:09:51;;;;;;;1.27;0.30;;;22.10;65.70;;;;;;5113284;28;20127;-74
2022/08/03 07:12:17;;;;;;;2.33;0.60;;;22.10;65.80;;;;;;5113376;28;20447;-74
2022/08/03 07:14:42;;;;;;;2.60;0.30;;;22.10;65.90;;;;;;5113471;28;20506;-74
2022/08/03 07:17:08;;;;;;;2.78;0.60;;;22.10;66.00;;;;;;5113388;28;20395;-75
2022/08/03 07:19:33;;;;;;;2.13;0.52;;;22.10;65.90;;;;;;5112936;28;20042;-75
2022/08/03 07:21:59;;;;;;;1.75;0.50;;;22.10;66.00;;;;;;5112994;28;20051;-74
2022/08/03 07:24:25;;;;;;;1.58;0.47;;;22.10;66.10;;;;;;5112898;28;20055;-75
2022/08/03 07:26:50;;;;;;;1.33;0.40;;;22.10;66.10;;;;;;5113196;28;20047;-74
2022/08/03 07:29:16;;;;;;;1.25;0.60;;;22.10;66.10;;;;;;5112715;28;20044;-76
2022/08/03 07:31:42;;;;;;;2.30;0.68;;;22.10;66.20;;;;;;5112146;28;20113;-75
2022/08/03 07:34:07;;;;;;;2.67;0.77;;;22.10;66.20;;;;;;5112650;28;20048;-75
2022/08/03 07:36:33;;;;;;;2.10;0.60;;;22.10;66.30;;;;;;5112572;28;20047;-75
2022/08/03 07:38:59;;;;;;;3.38;0.60;;;22.10;66.40;;;;;;5112624;28;20046;-75
2022/08/03 07:41:24;;;;;;;5.22;0.60;;;22.10;66.60;;;;;;5112678;28;20039;-75
2022/08/03 07:43:50;;;;;;;2.45;0.40;;;22.10;66.60;;;;;;5112517;28;20039;-74
2022/08/03 07:46:15;;;;;;;2.75;0.82;;;22.10;66.70;;;;;;5112709;28;20040;-75
2022/08/03 07:48:41;;;;;;;2.30;0.40;;;22.10;67.50;;;;;;5112746;28;20494;-75
2022/08/03 07:51:07;;;;;;;3.17;0.45;;;22.10;66.80;;;;;;5112207;28;20461;-75
2022/08/03 07:53:32;;;;;;;2.88;0.95;;;22.10;66.90;;;;;;5112709;28;20047;-74
2022/08/03 07:55:58;;;;;;;2.13;0.60;;;22.10;66.90;;;;;;5112297;28;20463;-75
2022/08/03 07:58:24;;;;;;;4.95;0.85;;;22.10;67.10;;;;;;5112230;28;20040;-74
2022/08/03 08:00:51;;;;;;;2.33;0.80;;;22.10;67.10;;;;;;5112156;28;20046;-75
2022/08/03 08:03:17;;;;;;;2.75;0.60;;;22.10;67.20;;;;;;5112168;28;20044;-75
2022/08/03 08:05:43;;;;;;;5.82;0.80;;;22.10;67.20;;;;;;5112216;28;20069;-74
2022/08/03 08:08:09;;;;;;;3.67;0.60;;;22.10;67.40;;;;;;5113183;28;20471;-74
2022/08/03 08:10:35;;;;;;;6.15;0.70;;;22.20;67.50;;;;;;5094777;28;20489;-74
2022/08/03 08:13:02;;;;;;;3.75;0.93;;;22.10;67.40;;;;;;5111893;28;20047;-74
2022/08/03 08:15:28;;;;;;;2.90;0.77;;;22.10;67.50;;;;;;5111937;28;20040;-74
2022/08/03 08:17:57;;;;;;;1.38;0.50;;;22.10;67.50;;;;;;5112099;28;20391;-76
2022/08/03 08:20:27;;;;;;;3.22;0.60;;;22.10;67.60;;;;;;5111657;28;20050;-71
2022/08/03 08:22:55;;;;;;;2.80;0.30;;;22.10;67.10;;;;;;5111902;28;20062;-71
2022/08/03 08:25:21;;;;;;;3.05;0.50;;;22.20;67.30;;;;;;5111793;28;20557;-72
2022/08/03 08:27:48;;;;;;;4.45;0.88;;;22.20;67.60;;;;;;5111777;28;20086;-71
2022/08/03 08:30:17;;;;;;;4.00;0.75;;;22.20;67.80;;;;;;5111519;28;20371;-71
2022/08/03 08:32:44;;;;;;;4.55;0.52;;;22.30;68.00;;;;;;5093297;28;20043;-72
2022/08/03 08:35:11;;;;;;;3.25;0.82;;;22.30;68.00;;;;;;5110483;28;20071;-72
2022/08/03 08:37:37;;;;;;;6.20;1.27;;;22.30;68.10;;;;;;5111311;28;20501;-72
2022/08/03 08:40:04;;;;;;;7.57;1.23;;;22.40;68.40;;;;;;5110907;28;20047;-71
2022/08/03 08:42:31;;;;;;;4.53;1.23;;;22.40;68.80;;;;;;5111333;28;20073;-71
2022/08/03 08:44:57;;;;;;;4.20;0.95;;;22.40;69.00;;;;;;5111382;28;20402;-72
2022/08/03 08:47:25;;;;;;;6.15;0.93;;;22.50;69.20;;;;;;5111256;28;20030;-71
2022/08/03 08:49:53;;;;;;;6.45;0.75;;;22.50;69.30;;;;;;5111005;28;20114;-72
2022/08/03 08:52:26;;;;;;;3.60;0.93;;;22.50;69.30;;;;;;5100165;28;20118;-72
2022/08/03 08:54:57;;;;;;;5.40;0.85;;;22.50;69.40;;;;;;5108813;28;20032;-72
2022/08/03 08:57:28;;;;;;;4.80;0.70;;;22.50;69.30;;;;;;5109314;28;20646;-72
2022/08/03 08:59:56;;;;;;;4.70;1.23;;;22.60;69.50;;;;;;5110218;28;20123;-72
2022/08/03 09:02:23;;;;;;;5.65;1.10;;;22.60;69.60;;;;;;5108838;28;20442;-72
2022/08/03 09:04:49;;;;;;;6.25;1.10;;;22.60;69.70;;;;;;5093252;28;20044;-71
2022/08/03 09:07:16;;;;;;;6.22;1.00;;;22.70;69.90;;;;;;5110446;28;20107;-70
2022/08/03 09:09:42;;;;;;;4.95;1.20;;;22.80;69.90;;;;;;5110204;28;20523;-70
2022/08/03 09:12:08;;;;;;;5.88;0.85;;;22.80;70.00;;;;;;5110082;28;20039;-70
2022/08/03 09:14:34;;;;;;;6.45;2.00;;;22.80;69.90;;;;;;5111551;28;20110;-71
2022/08/03 09:17:01;;;;;;;5.05;0.93;;;22.90;70.00;;;;;;5110193;28;20123;-71
2022/08/03 09:19:28;;;;;;;5.40;1.20;;;22.90;70.00;;;;;;5111596;28;20040;-71
2022/08/03 09:22:15;;;;;;;9.43;2.13;;;22.90;69.90;;;;;;5109315;28;20118;-71
2022/08/03 09:24:58;;;;;;;7.05;1.42;;;23.00;70.00;;;;;;5110168;28;20119;-71
2022/08/03 09:27:24;;;;;;;5.43;1.05;;;23.00;70.00;;;;;;5110021;28;20039;-71
2022/08/03 09:29:51;;;;;;;8.77;2.08;;;23.10;70.70;;;;;;5111287;28;20035;-71
2022/08/03 09:32:22;;;;;;;6.38;1.23;;;23.10;69.90;;;;;;5109540;28;20052;-71
2022/08/03 09:34:49;;;;;;;4.15;1.17;;;23.10;69.90;;;;;;5111197;28;20047;-71
2022/08/03 09:37:17;;;;;;;3.90;0.80;;;23.20;69.70;;;;;;5110158;28;20055;-72
2022/08/03 09:39:44;;;;;;;6.72;1.75;;;23.20;69.60;;;;;;5110086;28;20031;-77
2022/08/03 09:42:13;;;;;;;5.82;1.75;;;23.30;69.60;;;;;;5110084;28;20040;-74
2022/08/03 09:44:42;;;;;;;7.82;1.25;;;23.30;69.40;;;;;;5096559;28;20044;-76
2022/08/03 09:47:09;;;;;;;8.10;1.45;;;23.30;69.30;;;;;;5105599;28;20368;-73
2022/08/03 09:49:36;;;;;;;4.78;0.75;;;23.20;69.10;;;;;;5098064;28;20110;-73
2022/08/03 09:52:14;;;;;;;6.00;1.05;;;23.20;69.00;;;;;;5091147;28;20376;-74
2022/08/03 09:54:40;;;;;;;5.63;1.23;;;23.20;68.80;;;;;;5100951;28;20042;-73
2022/08/03 09:57:06;;;;;;;5.30;0.80;;;23.20;68.70;;;;;;5100377;28;20061;-73
2022/08/03 09:59:33;;;;;;;3.53;1.25;;;23.20;68.60;;;;;;5100283;28;20107;-74
2022/08/03 10:01:59;;;;;;;6.97;1.05;;;23.20;68.50;;;;;;5093240;28;20055;-73
2022/08/03 10:04:25;;;;;;;7.00;0.90;;;23.20;68.20;;;;;;5093287;28;20123;-73
2022/08/03 10:07:08;;;;;;;5.60;0.95;;;23.20;68.10;;;;;;5093637;28;20062;-73
2022/08/03 10:09:34;;;;;;;5.38;1.20;;;23.20;68.00;;;;;;5093546;28;20098;-73
2022/08/03 10:12:09;;;;;;;7.47;1.55;;;23.10;67.90;;;;;;5093099;28;20548;-74
2022/08/03 10:14:37;;;;;;;6.57;1.90;;;23.10;67.70;;;;;;5094642;28;20043;-73
2022/08/03 10:17:02;;;;;;;6.13;1.30;;;23.10;67.50;;;;;;5092703;28;20116;-73
2022/08/03 10:19:28;;;;;;;4.47;0.95;;;23.10;67.50;;;;;;5108020;28;20119;-73
2022/08/03 10:21:59;;;;;;;4.28;1.02;;;23.10;67.50;;;;;;5113615;28;20040;-74
2022/08/03 10:24:29;;;;;;;5.32;1.02;;;23.10;67.30;;;;;;5112732;28;20044;-74
2022/08/03 10:27:02;;;;;;;4.05;0.80;;;23.10;67.30;;;;;;5113637;28;20047;-73
2022/08/03 10:29:31;;;;;;;5.93;1.05;;;23.10;67.20;;;;;;5113997;28;20042;-73
2022/08/03 10:32:00;;;;;;;4.20;1.00;;;23.10;67.20;;;;;;5109063;28;20658;-73
2022/08/03 10:34:32;;;;;;;6.35;0.80;;;23.10;67.20;;;;;;5112339;28;20092;-73
2022/08/03 10:37:00;;;;;;;5.90;0.73;;;23.10;67.00;;;;;;5113075;28;20054;-73
2022/08/03 10:39:28;;;;;;;5.75;1.02;;;23.10;67.00;;;;;;5107109;28;20727;-74
2022/08/03 10:41:57;;;;;;;4.05;0.80;;;23.10;67.00;;;;;;5105438;28;20086;-73
2022/08/03 10:44:28;;;;;;;4.97;1.17;;;23.10;66.90;;;;;;5109183;28;20498;-73
2022/08/03 10:46:55;;;;;;;5.13;0.98;;;23.00;66.80;;;;;;5113521;28;20363;-73
2022/08/03 10:49:21;;;;;;;6.35;1.40;;;23.10;66.80;;;;;;5112950;28;20432;-73
2022/08/03 10:51:48;;;;;;;6.13;0.90;;;23.10;66.80;;;;;;5113528;28;20648;-73
2022/08/03 10:57:33;;;;;;;5.38;0.73;;;23.00;66.80;;;;;;5113079;28;20039;-73
2022/08/03 10:57:44;;;;;;;4.88;0.80;;;23.10;66.70;;;;;;5112853;28;20043;-74
2022/08/03 11:00:13;;;;;;;3.63;0.93;;;23.00;66.80;;;;;;5113810;28;20046;-73
2022/08/03 11:03:07;;;;;;;3.45;1.35;;;23.00;66.80;;;;;;5111919;28;20387;-73
2022/08/03 11:05:35;;;;;;;5.18;0.90;;;23.10;66.60;;;;;;5094672;28;20506;-73
2022/08/03 11:11:00;;;;;;;5.20;1.27;;;23.00;66.70;;;;;;5127875;27;20804;-72
2022/08/03 11:13:29;;;;;;;5.80;1.15;;;23.00;66.70;;;;;;5126544;28;20559;-72
2022/08/03 11:15:58;;;;;;;2.72;0.77;;;23.00;66.70;;;;;;5128230;28;20061;-72
2022/08/03 11:18:24;;;;;;;4.72;1.45;;;23.00;66.70;;;;;;5125830;28;20075;-73
2022/08/03 11:23:44;;;;;;;5.30;1.20;;;23.00;66.70;;;;;;5124833;27;20428;-72
2022/08/03 11:28:52;;;;;;;2.13;0.60;;;23.00;66.60;;;;;;5084065;27;20807;-72
2022/08/03 11:37:22;;;;;;;5.13;1.02;;;23.00;66.60;;;;;;5123609;27;20371;-72
2022/08/03 11:39:50;;;;;;;4.75;0.85;;;23.00;66.50;;;;;;5108238;28;20036;-72
2022/08/03 11:45:09;;;;;;;3.67;1.25;;;23.00;66.60;;;;;;5129064;27;20301;-72
2022/08/03 11:47:38;;;;;;;2.75;0.70;;;23.00;66.50;;;;;;5127891;27;20032;-72
2022/08/03 11:50:04;;;;;;;2.72;0.77;;;23.00;66.50;;;;;;5128902;28;20035;-72
2022/08/03 11:52:39;;;;;;;3.30;0.77;;;23.00;66.50;;;;;;5163394;27;20108;-72
2022/08/03 11:55:08;;;;;;;5.03;0.77;;;23.00;66.40;;;;;;5125705;28;20082;-73
2022/08/03 11:57:34;;;;;;;3.30;0.90;;;23.00;66.40;;;;;;5128227;28;20088;-73
2022/08/03 12:00:00;;;;;;;3.05;0.77;;;23.00;66.40;;;;;;5128551;28;20035;-73
2022/08/03 12:02:26;;;;;;;3.58;0.70;;;23.00;66.40;;;;;;5127465;28;20074;-73
2022/08/03 12:04:57;;;;;;;4.57;1.05;;;23.00;66.30;;;;;;5127025;27;20479;-74
2022/08/03 12:07:23;;;;;;;3.88;0.77;;;23.00;66.30;;;;;;5124874;28;20055;-73
2022/08/03 12:10:06;;;;;;;3.42;0.90;;;23.00;66.30;;;;;;5128313;28;20049;-74
2022/08/03 12:12:32;;;;;;;5.25;0.80;;;23.10;66.20;;;;;;5128354;28;20073;-74
2022/08/03 12:14:58;;;;;;;4.93;0.80;;;23.00;66.20;;;;;;5128989;27;20066;-74
2022/08/03 12:20:21;;;;;;;4.05;0.82;;;23.00;66.20;;;;;;5130424;27;20386;-74
2022/08/03 12:22:47;;;;;;;3.38;0.68;;;23.10;66.20;;;;;;5129062;28;20096;-74
2022/08/03 12:25:22;;;;;;;3.08;0.73;;;23.00;66.10;;;;;;5146631;27;20027;-74
2022/08/03 12:27:48;;;;;;;3.83;0.73;;;23.00;66.20;;;;;;5129096;28;20506;-74
2022/08/03 12:30:14;;;;;;;3.45;0.80;;;23.00;66.10;;;;;;5129189;27;20082;-74
2022/08/03 12:32:42;;;;;;;3.05;0.90;;;23.10;66.10;;;;;;5128826;27;20063;-73
2022/08/03 12:35:09;;;;;;;2.35;0.85;;;23.10;66.10;;;;;;5111853;28;20046;-74
2022/08/03 12:37:35;;;;;;;3.30;0.75;;;23.10;66.10;;;;;;5128763;28;20038;-74
2022/08/03 12:40:04;;;;;;;2.50;0.50;;;23.10;66.00;;;;;;5129962;27;20036;-73
2022/08/03 12:45:18;;;;;;;2.90;0.52;;;23.10;66.00;;;;;;5089317;27;20847;-74
2022/08/03 12:48:00;;;;;;;3.95;1.13;;;23.10;65.90;;;;;;5105093;28;20044;-74
2022/08/03 12:50:29;;;;;;;1.55;0.40;;;23.10;65.90;;;;;;5088284;28;20078;-74
2022/08/03 12:52:57;;;;;;;2.23;0.70;;;23.10;65.90;;;;;;5088162;28;20089;-74
2022/08/03 12:55:24;;;;;;;2.78;0.80;;;23.10;65.90;;;;;;5088232;28;20357;-74
2022/08/03 12:57:49;;;;;;;3.90;0.80;;;23.10;65.90;;;;;;5088176;28;20032;-74
2022/08/03 13:00:17;;;;;;;2.75;0.80;;;23.10;65.80;;;;;;5088177;28;20556;-73
2022/08/03 13:02:44;;;;;;;3.75;0.90;;;23.20;65.90;;;;;;5087822;28;20089;-74
2022/08/03 13:05:12;;;;;;;3.42;0.75;;;23.20;65.80;;;;;;5089143;28;20036;-73
2022/08/03 13:07:41;;;;;;;3.67;0.70;;;23.20;65.80;;;;;;5089001;28;20155;-74
2022/08/03 13:10:07;;;;;;;2.47;0.68;;;23.20;65.80;;;;;;5087709;28;20044;-74
2022/08/03 13:12:44;;;;;;;2.47;0.70;;;23.20;65.80;;;;;;5087528;28;20122;-74
2022/08/03 13:15:09;;;;;;;3.97;0.60;;;23.20;65.70;;;;;;5087637;28;20040;-74
2022/08/03 13:17:35;;;;;;;4.10;0.63;;;23.20;65.80;;;;;;5088969;28;20037;-74
2022/08/03 13:20:01;;;;;;;3.63;0.50;;;23.20;65.70;;;;;;5087809;28;20044;-74
2022/08/03 13:22:27;;;;;;;2.35;0.85;;;23.20;65.70;;;;;;5087528;28;20044;-74
2022/08/03 13:24:56;;;;;;;1.67;0.45;;;23.20;65.70;;;;;;5088570;28;20036;-74
2022/08/03 13:27:22;;;;;;;4.55;0.90;;;23.20;65.70;;;;;;5087667;28;20094;-74
2022/08/03 13:29:47;;;;;;;2.92;1.00;;;23.20;65.60;;;;;;5087357;28;20036;-74
2022/08/03 13:32:13;;;;;;;3.17;1.25;;;23.20;65.60;;;;;;5087374;28;20040;-73
2022/08/03 13:34:39;;;;;;;3.35;0.68;;;23.20;65.60;;;;;;5087340;28;20066;-74